Time;durP1;ratioP1;P1;durP2;ratioP2;P2;SDS_P1;SDS_P2;PMS_P1;PMS_P2;Temp;Humidity;BMP_temperature;BMP_pressure;BME280_temperature;BME280_humidity;BME280_pressure;Samples;Min_cycle;Max_cycle;Signal;HPM_P1;HPM_P2
2022/09/06 00:01:41;;;;;;;4.20;1.15;;;29.00;99.90;;;;;;4969525;28;20055;-48
2022/09/06 00:04:07;;;;;;;2.72;0.98;;;28.90;99.90;;;;;;4958815;28;20027;-49
2022/09/06 00:06:35;;;;;;;3.17;0.98;;;28.90;99.90;;;;;;4971630;28;20034;-49
2022/09/06 00:09:01;;;;;;;5.55;0.95;;;28.80;99.90;;;;;;4963820;28;20066;-49
2022/09/06 00:11:27;;;;;;;6.15;1.00;;;28.80;99.90;;;;;;4971868;28;20062;-48
2022/09/06 00:13:53;;;;;;;1.83;0.93;;;28.80;99.90;;;;;;4971488;28;20345;-47
2022/09/06 00:16:24;;;;;;;3.47;0.95;;;28.70;99.90;;;;;;4968712;28;20037;-51
2022/09/06 00:18:54;;;;;;;6.30;0.90;;;28.70;99.90;;;;;;4969559;28;20061;-47
2022/09/06 00:21:25;;;;;;;4.63;1.00;;;28.70;99.90;;;;;;4957617;28;20374;-48
2022/09/06 00:23:52;;;;;;;9.13;1.20;;;28.60;99.90;;;;;;4959178;28;20472;-48
2022/09/06 00:26:18;;;;;;;4.45;0.90;;;28.60;99.90;;;;;;4971561;28;20055;-49
2022/09/06 00:28:44;;;;;;;4.70;1.02;;;28.60;99.90;;;;;;4961951;28;20483;-50
2022/09/06 00:31:12;;;;;;;1.38;0.93;;;28.60;99.90;;;;;;4953508;28;20035;-49
2022/09/06 00:33:38;;;;;;;3.95;0.98;;;28.60;99.90;;;;;;4958966;28;20262;-49
2022/09/06 00:36:05;;;;;;;2.80;0.90;;;28.60;99.90;;;;;;4962534;28;20027;-49
2022/09/06 00:38:30;;;;;;;2.63;0.77;;;28.60;99.90;;;;;;4968842;28;20023;-49
2022/09/06 00:40:57;;;;;;;3.67;0.80;;;28.60;99.90;;;;;;4974919;28;20470;-50
2022/09/06 00:43:23;;;;;;;5.15;1.73;;;28.50;99.90;;;;;;4962768;28;20023;-49
2022/09/06 00:45:48;;;;;;;3.97;1.02;;;28.50;99.90;;;;;;4968596;28;20391;-49
2022/09/06 00:48:15;;;;;;;2.15;0.70;;;28.50;99.90;;;;;;4970116;28;20041;-47
2022/09/06 00:50:42;;;;;;;2.53;0.88;;;28.50;99.90;;;;;;4974698;28;20553;-47
2022/09/06 00:53:07;;;;;;;2.55;0.80;;;28.50;99.90;;;;;;4974675;28;20039;-47
2022/09/06 00:55:33;;;;;;;3.28;0.60;;;28.60;99.90;;;;;;4975012;28;20165;-47
2022/09/06 00:57:59;;;;;;;1.40;0.85;;;28.60;99.90;;;;;;4974537;28;20495;-48
2022/09/06 01:00:25;;;;;;;1.60;0.80;;;28.60;99.90;;;;;;4993266;23;20050;-44
2022/09/06 01:02:53;;;;;;;6.85;1.00;;;28.60;99.90;;;;;;4994044;28;20470;-42
2022/09/06 01:05:23;;;;;;;3.63;0.80;;;28.60;99.90;;;;;;4993937;28;20025;-43
2022/09/06 01:08:36;;;;;;;4.55;0.77;;;28.60;99.90;;;;;;4994108;28;20034;-44
2022/09/06 01:11:29;;;;;;;4.18;0.73;;;28.50;99.90;;;;;;4971285;28;20137;-44
2022/09/06 01:14:19;;;;;;;4.60;1.02;;;28.50;99.90;;;;;;4991022;28;20054;-44
2022/09/06 01:16:54;;;;;;;3.65;0.85;;;28.50;99.90;;;;;;4988086;28;20022;-44
2022/09/06 01:19:47;;;;;;;3.00;0.70;;;28.50;99.90;;;;;;4993294;28;20409;-44
2022/09/06 01:22:28;;;;;;;2.70;0.80;;;28.50;99.90;;;;;;4979017;28;20037;-43
2022/09/06 01:25:30;;;;;;;2.13;0.90;;;28.50;99.90;;;;;;4991188;28;20061;-42
2022/09/06 01:28:17;;;;;;;2.63;1.00;;;28.50;99.90;;;;;;4987687;28;20018;-44
2022/09/06 01:30:51;;;;;;;3.00;0.80;;;28.50;99.90;;;;;;4986327;28;20109;-44
2022/09/06 01:33:56;;;;;;;3.33;0.73;;;28.50;99.90;;;;;;4982609;28;20027;-44
2022/09/06 01:36:27;;;;;;;1.70;0.80;;;28.50;99.90;;;;;;4979491;28;20047;-44
2022/09/06 01:38:53;;;;;;;1.33;0.65;;;28.40;99.90;;;;;;4992409;28;20023;-44
2022/09/06 01:41:19;;;;;;;2.92;0.90;;;28.40;99.90;;;;;;4980730;28;20383;-44
2022/09/06 01:43:47;;;;;;;2.40;0.63;;;28.40;99.90;;;;;;4976582;28;20395;-44
2022/09/06 01:46:27;;;;;;;6.95;0.95;;;28.40;99.90;;;;;;4975597;28;20022;-44
2022/09/06 01:49:20;;;;;;;4.15;0.77;;;28.40;99.90;;;;;;4982931;28;20026;-45
2022/09/06 01:52:08;;;;;;;4.65;1.10;;;28.40;99.90;;;;;;4992025;28;20030;-44
2022/09/06 01:55:04;;;;;;;3.90;0.85;;;28.40;99.90;;;;;;4973240;28;20511;-45
2022/09/06 01:57:46;;;;;;;4.32;0.95;;;28.40;99.90;;;;;;4984970;28;20073;-44
2022/09/06 02:00:15;;;;;;;4.88;0.77;;;28.30;99.90;;;;;;4978165;28;20077;-45
2022/09/06 02:02:52;;;;;;;3.72;0.60;;;28.30;99.90;;;;;;4980071;28;20026;-45
2022/09/06 02:05:20;;;;;;;3.05;0.95;;;28.20;99.90;;;;;;4991421;28;20054;-45
2022/09/06 02:07:49;;;;;;;2.50;0.77;;;28.20;99.90;;;;;;4992658;28;20086;-44
2022/09/06 02:10:49;;;;;;;4.60;0.70;;;28.20;99.90;;;;;;4990671;28;20096;-45
2022/09/06 02:13:17;;;;;;;9.45;1.08;;;28.10;99.90;;;;;;4991518;28;20030;-44
2022/09/06 02:15:53;;;;;;;6.03;1.92;;;28.10;99.90;;;;;;4992931;28;20047;-44
2022/09/06 02:18:23;;;;;;;2.58;0.90;;;28.10;99.90;;;;;;4992386;28;20033;-44
2022/09/06 02:20:53;;;;;;;2.63;1.38;;;28.00;99.90;;;;;;4990560;28;20069;-44
2022/09/06 02:23:27;;;;;;;8.20;1.52;;;28.00;99.90;;;;;;4992549;28;20026;-43
2022/09/06 02:25:56;;;;;;;4.80;1.15;;;27.90;99.90;;;;;;4992408;28;20026;-44
2022/09/06 02:28:22;;;;;;;2.90;1.02;;;28.00;99.90;;;;;;4992371;28;20030;-44
2022/09/06 02:30:52;;;;;;;7.13;0.73;;;28.00;99.90;;;;;;4992411;28;20067;-44
2022/09/06 02:33:25;;;;;;;1.77;0.90;;;27.90;99.90;;;;;;4987884;28;20030;-44
2022/09/06 02:35:53;;;;;;;2.30;0.98;;;27.90;99.90;;;;;;4976789;28;20030;-44
2022/09/06 02:38:25;;;;;;;2.75;0.90;;;27.80;99.90;;;;;;4990798;28;20030;-49
2022/09/06 02:40:53;;;;;;;1.17;0.80;;;27.80;99.90;;;;;;4990586;28;20034;-43
2022/09/06 02:43:20;;;;;;;3.13;0.70;;;27.80;99.90;;;;;;4991083;28;20023;-43
2022/09/06 02:45:46;;;;;;;3.83;0.82;;;27.80;99.90;;;;;;4991745;28;20502;-44
2022/09/06 02:48:13;;;;;;;3.03;0.80;;;27.80;99.90;;;;;;4992588;28;20041;-43
2022/09/06 02:50:39;;;;;;;2.30;0.65;;;27.70;99.90;;;;;;4992396;28;20565;-43
2022/09/06 02:53:08;;;;;;;3.30;0.85;;;27.70;99.90;;;;;;4991584;28;20031;-43
2022/09/06 02:55:34;;;;;;;3.90;0.88;;;27.70;99.90;;;;;;4992047;28;20038;-43
2022/09/06 02:58:00;;;;;;;2.33;0.60;;;27.70;99.90;;;;;;4992217;28;20068;-44
2022/09/06 03:00:27;;;;;;;2.58;0.90;;;27.60;99.90;;;;;;4992604;28;20104;-44
2022/09/06 03:02:54;;;;;;;5.80;1.25;;;27.70;99.90;;;;;;4992186;28;20030;-43
2022/09/06 03:05:24;;;;;;;3.55;0.85;;;27.60;99.90;;;;;;4992158;28;20385;-43
2022/09/06 03:07:50;;;;;;;3.70;1.00;;;27.60;99.90;;;;;;4992097;28;20058;-44
2022/09/06 03:10:16;;;;;;;1.75;0.80;;;27.60;99.90;;;;;;4992012;28;20110;-44
2022/09/06 03:12:43;;;;;;;3.03;0.82;;;27.60;99.90;;;;;;4992238;28;20030;-43
2022/09/06 03:15:10;;;;;;;3.83;0.88;;;27.50;99.90;;;;;;4992293;28;20026;-43
2022/09/06 03:17:37;;;;;;;3.90;0.80;;;27.50;99.90;;;;;;4990827;28;20050;-43
2022/09/06 03:20:03;;;;;;;5.40;1.60;;;27.50;99.90;;;;;;4992217;28;20037;-43
2022/09/06 03:22:29;;;;;;;0.80;0.50;;;27.50;99.90;;;;;;4991934;28;20030;-43
2022/09/06 03:24:56;;;;;;;8.55;1.08;;;27.50;99.90;;;;;;4991954;28;20104;-43
2022/09/06 03:27:22;;;;;;;4.13;0.98;;;27.50;99.90;;;;;;4991906;28;20029;-43
2022/09/06 03:29:48;;;;;;;4.88;0.77;;;27.50;99.90;;;;;;4991825;28;20034;-43
2022/09/06 03:32:14;;;;;;;4.45;0.70;;;27.40;99.90;;;;;;4991981;28;20033;-43
2022/09/06 03:34:39;;;;;;;3.47;0.85;;;27.50;99.90;;;;;;4992007;28;20382;-44
2022/09/06 03:37:05;;;;;;;4.00;1.02;;;27.40;99.90;;;;;;4990512;28;20503;-44
2022/09/06 03:39:31;;;;;;;4.95;0.63;;;27.40;99.90;;;;;;4991775;28;20054;-44
2022/09/06 03:41:57;;;;;;;1.55;0.70;;;27.40;99.90;;;;;;4991804;28;20074;-44
2022/09/06 03:44:23;;;;;;;4.40;1.10;;;27.40;99.90;;;;;;4991667;28;20630;-44
2022/09/06 03:46:50;;;;;;;2.35;0.70;;;27.40;99.90;;;;;;4991680;28;20030;-44
2022/09/06 03:49:16;;;;;;;5.35;0.85;;;27.40;99.90;;;;;;4991613;28;20447;-44
2022/09/06 03:51:41;;;;;;;4.55;0.90;;;27.30;99.90;;;;;;4991832;28;20062;-44
2022/09/06 03:54:07;;;;;;;4.00;0.77;;;27.30;99.90;;;;;;4991766;28;20054;-44
2022/09/06 03:56:33;;;;;;;1.48;0.60;;;27.30;99.90;;;;;;4991513;28;20022;-44
2022/09/06 03:58:59;;;;;;;3.42;0.80;;;27.30;99.90;;;;;;4991408;28;20081;-44
2022/09/06 04:01:26;;;;;;;3.03;1.10;;;27.30;99.90;;;;;;4992356;28;20064;-44
2022/09/06 04:03:51;;;;;;;4.57;0.68;;;27.30;99.90;;;;;;4992803;28;20088;-44
2022/09/06 04:06:17;;;;;;;1.90;0.88;;;27.30;99.90;;;;;;4993961;28;20031;-44
2022/09/06 04:08:43;;;;;;;3.80;0.93;;;27.20;99.90;;;;;;4995364;28;20057;-44
2022/09/06 04:11:09;;;;;;;1.98;0.68;;;27.30;99.90;;;;;;4995328;28;20383;-44
2022/09/06 04:13:36;;;;;;;1.83;0.73;;;27.20;99.90;;;;;;4995248;28;20452;-44
2022/09/06 04:16:03;;;;;;;3.75;1.08;;;27.20;99.90;;;;;;4995193;28;20238;-44
2022/09/06 04:18:29;;;;;;;7.15;0.88;;;27.20;99.90;;;;;;4995224;28;20030;-44
2022/09/06 04:20:55;;;;;;;2.08;0.63;;;27.20;99.90;;;;;;4995077;28;20023;-44
2022/09/06 04:23:22;;;;;;;2.60;0.85;;;27.20;99.90;;;;;;4995098;28;20490;-45
2022/09/06 04:25:50;;;;;;;2.15;0.70;;;27.20;99.90;;;;;;4995013;28;20068;-44
2022/09/06 04:28:17;;;;;;;2.50;0.82;;;27.10;99.90;;;;;;4995103;28;20073;-44
2022/09/06 04:31:03;;;;;;;2.60;0.90;;;27.10;99.90;;;;;;4994972;28;20042;-44
2022/09/06 04:33:30;;;;;;;2.58;0.75;;;27.10;99.90;;;;;;4994656;28;20053;-43
2022/09/06 04:35:58;;;;;;;3.03;0.73;;;27.10;99.90;;;;;;4994780;28;20082;-43
2022/09/06 04:38:27;;;;;;;3.50;0.80;;;27.00;99.90;;;;;;4994850;28;20027;-43
2022/09/06 04:40:56;;;;;;;3.00;0.73;;;27.10;99.90;;;;;;4994757;28;20030;-43
2022/09/06 04:43:22;;;;;;;4.32;0.80;;;27.00;99.90;;;;;;4994784;28;20030;-44
2022/09/06 04:45:48;;;;;;;6.38;0.95;;;27.00;99.90;;;;;;4994740;28;20027;-44
2022/09/06 04:48:14;;;;;;;2.65;0.70;;;27.00;99.90;;;;;;4994702;28;20214;-44
2022/09/06 04:50:39;;;;;;;4.22;0.73;;;27.00;99.90;;;;;;4994389;28;20041;-43
2022/09/06 04:53:06;;;;;;;0.93;0.57;;;27.00;99.90;;;;;;4994638;28;20025;-44
2022/09/06 04:55:32;;;;;;;4.05;0.80;;;27.00;99.90;;;;;;4994454;28;20049;-44
2022/09/06 04:57:59;;;;;;;3.25;0.65;;;27.00;99.90;;;;;;4994341;28;20058;-43
2022/09/06 05:00:26;;;;;;;1.47;0.70;;;27.00;99.90;;;;;;4994345;28;20050;-44
2022/09/06 05:02:52;;;;;;;5.38;0.73;;;27.00;99.90;;;;;;4994312;28;20050;-44
2022/09/06 05:05:17;;;;;;;5.00;3.30;;;27.00;99.90;;;;;;4994534;28;20062;-44
2022/09/06 05:07:43;;;;;;;5.70;2.40;;;26.90;99.90;;;;;;4994275;28;20089;-44
2022/09/06 05:10:09;;;;;;;7.22;2.13;;;26.90;99.90;;;;;;4994066;28;20510;-44
2022/09/06 05:12:35;;;;;;;6.18;2.83;;;26.90;99.90;;;;;;4992895;28;20023;-44
2022/09/06 05:15:00;;;;;;;6.18;4.35;;;26.90;99.90;;;;;;4993626;28;20387;-44
2022/09/06 05:17:26;;;;;;;6.18;2.13;;;26.80;99.90;;;;;;4992834;28;20049;-44
2022/09/06 05:19:52;;;;;;;8.50;1.67;;;26.80;99.90;;;;;;4993914;28;20034;-44
2022/09/06 05:22:18;;;;;;;4.97;3.45;;;26.90;99.90;;;;;;4994007;28;20023;-44
2022/09/06 05:24:43;;;;;;;2.78;2.10;;;26.80;99.90;;;;;;4993830;28;20031;-43
2022/09/06 05:27:11;;;;;;;4.85;2.78;;;26.80;99.90;;;;;;4993877;28;20033;-43
2022/09/06 05:29:37;;;;;;;;;;;26.80;99.90;;;;;;4994197;28;20416;-44
2022/09/06 05:32:03;;;;;;;7.05;3.97;;;26.80;99.90;;;;;;4993679;28;19921;-43
2022/09/06 05:34:29;;;;;;;7.13;4.50;;;26.80;99.90;;;;;;4993838;28;20034;-44
2022/09/06 05:36:55;;;;;;;3.30;2.33;;;26.80;99.90;;;;;;4993640;28;20046;-44
2022/09/06 05:39:20;;;;;;;6.47;2.10;;;26.80;99.90;;;;;;4993675;28;20072;-43
2022/09/06 05:41:47;;;;;;;4.63;1.83;;;26.80;99.90;;;;;;4993752;28;20160;-43
2022/09/06 05:44:13;;;;;;;4.90;1.60;;;26.80;99.90;;;;;;4993525;28;20030;-44
2022/09/06 05:46:44;;;;;;;2.42;1.70;;;26.80;99.90;;;;;;4993636;28;20121;-43
2022/09/06 05:49:11;;;;;;;6.40;2.10;;;26.80;99.90;;;;;;4993458;28;20034;-43
2022/09/06 05:51:37;;;;;;;;;;;26.70;99.90;;;;;;4994054;28;20027;-43
2022/09/06 05:54:03;;;;;;;5.38;1.05;;;26.70;99.90;;;;;;4993461;28;20234;-43
2022/09/06 05:56:28;;;;;;;3.38;0.90;;;26.70;99.90;;;;;;4993350;28;20034;-44
2022/09/06 05:58:54;;;;;;;2.58;1.17;;;26.70;99.90;;;;;;4992105;28;20495;-44
2022/09/06 06:01:25;;;;;;;2.47;0.95;;;26.70;99.90;;;;;;4993221;28;20388;-44
2022/09/06 06:03:54;;;;;;;3.58;1.30;;;26.70;99.90;;;;;;4993383;28;20363;-44
2022/09/06 06:06:21;;;;;;;4.78;1.67;;;26.70;99.90;;;;;;4993207;28;20486;-44
2022/09/06 06:08:47;;;;;;;2.35;1.00;;;26.70;99.90;;;;;;4992927;28;20458;-44
2022/09/06 06:11:13;;;;;;;2.53;1.08;;;26.70;99.90;;;;;;4993142;28;20038;-43
2022/09/06 06:13:39;;;;;;;5.97;1.13;;;26.70;99.90;;;;;;4993077;28;20045;-44
2022/09/06 06:16:07;;;;;;;4.72;2.15;;;26.70;99.90;;;;;;4992894;28;20034;-44
2022/09/06 06:18:34;;;;;;;3.30;1.42;;;26.70;99.90;;;;;;4993014;28;20014;-44
2022/09/06 06:21:27;;;;;;;2.08;1.42;;;26.70;99.90;;;;;;4992845;28;20164;-43
2022/09/06 06:23:58;;;;;;;4.10;1.30;;;26.70;99.90;;;;;;4991309;28;20035;-44
2022/09/06 06:26:26;;;;;;;1.92;1.40;;;26.80;99.90;;;;;;4992147;28;20030;-44
2022/09/06 06:28:52;;;;;;;4.50;1.05;;;26.80;99.90;;;;;;4992764;28;20034;-43
2022/09/06 06:31:20;;;;;;;6.75;1.35;;;26.90;99.90;;;;;;4992742;28;20100;-43
2022/09/06 06:33:46;;;;;;;7.88;2.25;;;26.90;99.90;;;;;;4992625;28;20447;-44
2022/09/06 06:36:12;;;;;;;4.88;2.35;;;26.90;99.90;;;;;;4992487;28;20501;-44
2022/09/06 06:38:40;;;;;;;8.20;1.55;;;26.90;99.90;;;;;;4992542;28;20027;-44
2022/09/06 06:41:07;;;;;;;8.93;2.15;;;26.80;99.90;;;;;;4992597;28;20031;-44
2022/09/06 06:43:36;;;;;;;;;;;26.60;99.90;;;;;;4992850;28;20026;-43
2022/09/06 06:46:17;;;;;;;10.40;2.10;;;26.50;99.90;;;;;;4992247;28;19940;-43
2022/09/06 06:48:44;;;;;;;6.95;2.63;;;26.40;99.90;;;;;;4991982;28;20048;-44
2022/09/06 06:51:15;;;;;;;8.50;2.60;;;26.30;99.90;;;;;;4992495;28;20533;-44
2022/09/06 06:53:42;;;;;;;5.53;2.33;;;26.20;99.90;;;;;;4992230;28;20117;-43
2022/09/06 06:56:25;;;;;;;6.68;2.08;;;26.10;99.90;;;;;;4992107;28;20057;-43
2022/09/06 06:58:54;;;;;;;5.97;2.05;;;26.10;99.90;;;;;;4991275;28;20084;-43
2022/09/06 07:01:21;;;;;;;8.43;2.38;;;26.00;99.90;;;;;;4992021;28;20046;-43
2022/09/06 07:03:48;;;;;;;10.30;2.40;;;26.00;99.90;;;;;;4992066;28;20048;-43
2022/09/06 07:06:14;;;;;;;11.60;2.05;;;26.00;99.90;;;;;;4991913;28;20200;-44
2022/09/06 07:08:42;;;;;;;8.57;2.15;;;26.00;99.90;;;;;;4991994;28;20062;-43
2022/09/06 07:11:10;;;;;;;11.38;2.17;;;26.00;99.90;;;;;;4992060;28;20113;-43
2022/09/06 07:13:36;;;;;;;10.55;3.08;;;26.00;99.90;;;;;;4991917;28;20101;-43
2022/09/06 07:16:14;;;;;;;11.45;2.38;;;26.00;99.90;;;;;;4991963;28;20041;-43
2022/09/06 07:18:42;;;;;;;7.78;1.92;;;26.00;99.90;;;;;;4991979;28;20022;-43
2022/09/06 07:21:19;;;;;;;6.05;1.92;;;26.00;99.90;;;;;;4991801;28;20109;-43
2022/09/06 07:23:45;;;;;;;8.10;2.00;;;26.10;99.90;;;;;;4991947;28;20335;-44
2022/09/06 07:26:15;;;;;;;23.30;2.75;;;26.10;99.90;;;;;;4991716;28;20022;-44
2022/09/06 07:28:41;;;;;;;11.93;2.30;;;26.10;99.90;;;;;;4991627;28;20034;-44
2022/09/06 07:31:07;;;;;;;13.18;3.15;;;26.20;99.90;;;;;;4991888;28;20498;-44
2022/09/06 07:33:37;;;;;;;14.65;2.95;;;26.20;99.90;;;;;;4991640;28;20104;-44
2022/09/06 07:36:05;;;;;;;11.40;3.03;;;26.20;99.90;;;;;;4991637;28;20027;-44
2022/09/06 07:38:31;;;;;;;14.38;2.58;;;26.20;99.90;;;;;;4994213;28;20026;-44
2022/09/06 07:41:16;;;;;;;17.85;3.50;;;26.20;99.90;;;;;;4995704;28;20038;-44
2022/09/06 07:43:43;;;;;;;13.60;2.72;;;26.20;99.90;;;;;;4995707;28;20035;-44
2022/09/06 07:46:11;;;;;;;10.70;1.80;;;26.30;99.90;;;;;;4995475;28;20027;-44
2022/09/06 07:48:41;;;;;;;7.05;1.80;;;26.30;99.90;;;;;;4995387;28;20093;-44
2022/09/06 07:51:18;;;;;;;8.82;2.28;;;26.30;99.90;;;;;;4995741;28;20029;-44
2022/09/06 07:53:51;;;;;;;13.18;2.17;;;26.40;99.90;;;;;;4995529;28;20030;-44
2022/09/06 07:56:18;;;;;;;10.02;2.25;;;26.40;99.90;;;;;;4995385;28;20113;-44
2022/09/06 07:58:44;;;;;;;;;;;26.40;99.90;;;;;;4995920;28;20418;-44
2022/09/06 08:01:33;;;;;;;8.75;2.30;;;26.50;99.90;;;;;;4995299;28;19917;-44
2022/09/06 08:04:00;;;;;;;7.05;1.77;;;26.60;99.90;;;;;;4995121;28;20034;-44
2022/09/06 08:06:26;;;;;;;;;;;26.60;99.90;;;;;;4996096;28;20332;-44
2022/09/06 08:08:53;;;;;;;11.70;2.75;;;26.60;99.90;;;;;;4995212;28;19918;-44
2022/09/06 08:11:19;;;;;;;8.85;1.75;;;26.60;99.90;;;;;;4995231;28;20113;-44
2022/09/06 08:13:50;;;;;;;10.97;2.27;;;26.60;99.90;;;;;;4995332;28;20023;-45
2022/09/06 08:16:16;;;;;;;5.07;1.45;;;26.60;99.90;;;;;;4995066;28;20050;-44
2022/09/06 08:18:42;;;;;;;7.40;1.90;;;26.70;99.90;;;;;;4995026;28;20516;-44
2022/09/06 08:21:12;;;;;;;8.02;1.95;;;26.70;99.90;;;;;;4995037;28;20057;-44
2022/09/06 08:23:44;;;;;;;15.90;3.08;;;26.80;99.90;;;;;;4995044;28;20027;-44
2022/09/06 08:26:10;;;;;;;14.60;2.42;;;26.80;99.90;;;;;;4994752;28;20065;-44
2022/09/06 08:28:36;;;;;;;10.82;1.80;;;26.80;99.90;;;;;;4994760;28;20078;-44
2022/09/06 08:31:16;;;;;;;7.45;1.80;;;26.90;99.90;;;;;;4993681;28;20033;-44
2022/09/06 08:33:43;;;;;;;9.05;2.20;;;26.90;99.90;;;;;;4994717;28;20031;-44
2022/09/06 08:36:10;;;;;;;6.75;1.85;;;27.00;99.90;;;;;;4994736;28;20093;-44
2022/09/06 08:38:36;;;;;;;7.18;2.35;;;27.00;99.90;;;;;;4994742;28;20089;-44
2022/09/06 08:41:30;;;;;;;4.15;2.00;;;27.10;99.90;;;;;;4994637;28;20030;-44
2022/09/06 08:44:15;;;;;;;6.90;1.90;;;27.10;99.90;;;;;;4977398;28;20027;-44
2022/09/06 08:46:53;;;;;;;18.52;2.10;;;27.10;99.90;;;;;;4994370;28;20030;-44
2022/09/06 08:49:19;;;;;;;7.63;2.35;;;27.20;99.90;;;;;;4993556;28;20101;-44
2022/09/06 08:51:48;;;;;;;10.20;2.20;;;27.30;99.90;;;;;;4994577;28;20085;-45
2022/09/06 08:54:35;;;;;;;10.02;1.45;;;27.40;99.90;;;;;;4994500;28;20085;-45
2022/09/06 08:57:34;;;;;;;12.40;2.13;;;27.40;99.90;;;;;;4994386;28;20426;-44
2022/09/06 09:00:09;;;;;;;15.80;2.15;;;27.40;99.90;;;;;;4994328;28;20058;-44
2022/09/06 09:02:48;;;;;;;5.32;1.80;;;27.50;99.90;;;;;;4994440;28;20470;-45
2022/09/06 09:05:25;;;;;;;6.20;1.52;;;27.60;99.90;;;;;;4994208;28;20339;-45
2022/09/06 09:08:04;;;;;;;17.30;2.03;;;27.60;99.90;;;;;;4994168;28;20022;-44
2022/09/06 09:10:43;;;;;;;6.25;1.42;;;27.70;99.90;;;;;;4994243;28;20188;-44
2022/09/06 09:13:40;;;;;;;6.97;1.70;;;27.80;99.90;;;;;;4994075;28;20019;-44
2022/09/06 09:16:06;;;;;;;5.80;1.35;;;27.90;99.90;;;;;;4986583;28;20038;-44
2022/09/06 09:18:39;;;;;;;6.75;1.60;;;27.90;99.90;;;;;;4994156;28;20037;-44
2022/09/06 09:21:05;;;;;;;4.88;1.83;;;27.90;99.90;;;;;;4993899;28;20022;-44
2022/09/06 09:23:31;;;;;;;8.60;2.33;;;28.00;99.90;;;;;;4994113;28;20478;-44
2022/09/06 09:26:13;;;;;;;3.53;1.38;;;28.00;99.90;;;;;;4993889;28;20022;-44
2022/09/06 09:29:03;;;;;;;7.20;1.60;;;28.00;99.90;;;;;;4993841;28;20113;-44
2022/09/06 09:31:38;;;;;;;7.10;2.03;;;28.00;99.90;;;;;;4993967;28;20510;-44
2022/09/06 09:34:04;;;;;;;6.03;1.27;;;28.10;99.90;;;;;;4993531;28;20032;-44
2022/09/06 09:36:31;;;;;;;6.82;1.50;;;28.10;99.90;;;;;;4993882;28;20026;-44
2022/09/06 09:38:58;;;;;;;7.03;1.65;;;28.20;99.90;;;;;;4993451;28;20030;-44
2022/09/06 09:41:35;;;;;;;8.32;1.55;;;28.30;99.90;;;;;;4993387;28;20042;-44
2022/09/06 09:44:04;;;;;;;4.10;1.40;;;28.20;99.90;;;;;;4993576;28;20530;-44
2022/09/06 09:46:35;;;;;;;4.18;1.20;;;28.30;99.90;;;;;;4993520;28;20121;-45
2022/09/06 09:49:13;;;;;;;7.65;1.83;;;28.30;99.90;;;;;;4993445;28;20041;-45
2022/09/06 09:52:03;;;;;;;5.57;1.63;;;28.30;99.90;;;;;;4993287;28;20073;-45
2022/09/06 09:54:30;;;;;;;6.43;1.55;;;28.40;99.90;;;;;;4993330;28;20116;-45
2022/09/06 09:56:57;;;;;;;2.97;1.10;;;28.40;99.90;;;;;;4993166;28;20029;-45
2022/09/06 09:59:43;;;;;;;6.47;1.20;;;28.40;99.90;;;;;;4993177;28;20089;-45
2022/09/06 10:02:41;;;;;;;8.45;1.77;;;28.40;99.90;;;;;;4992117;28;20043;-45
2022/09/06 10:05:16;;;;;;;4.38;1.10;;;28.60;99.90;;;;;;4985058;28;20038;-45
2022/09/06 10:07:46;;;;;;;7.43;1.50;;;28.60;99.90;;;;;;4992925;28;20470;-45
2022/09/06 10:10:31;;;;;;;7.88;1.88;;;28.70;99.90;;;;;;4993087;28;20204;-44
2022/09/06 10:13:18;;;;;;;7.78;1.20;;;28.90;99.90;;;;;;4992986;28;20125;-45
2022/09/06 10:15:44;;;;;;;4.85;0.95;;;28.90;99.90;;;;;;4992902;28;20023;-45
2022/09/06 10:18:19;;;;;;;5.93;1.50;;;29.00;99.90;;;;;;4992698;28;20109;-44
2022/09/06 10:21:04;;;;;;;15.65;1.95;;;29.10;99.90;;;;;;4991388;28;20018;-44
2022/09/06 10:23:30;;;;;;;6.55;1.73;;;29.10;99.90;;;;;;4992665;28;20030;-45
2022/09/06 10:26:11;;;;;;;8.02;1.55;;;29.10;99.90;;;;;;4991350;28;20032;-43
2022/09/06 10:28:44;;;;;;;8.57;1.50;;;29.20;99.90;;;;;;4992559;28;20032;-44
2022/09/06 10:31:10;;;;;;;6.93;1.40;;;29.30;99.90;;;;;;4992332;28;20031;-43
2022/09/06 10:33:45;;;;;;;4.72;1.67;;;29.30;99.90;;;;;;4992769;28;20026;-43
2022/09/06 10:36:12;;;;;;;14.73;1.75;;;29.40;99.90;;;;;;4992358;28;20426;-44
2022/09/06 10:39:02;;;;;;;5.90;1.95;;;29.40;99.90;;;;;;4992353;28;20022;-44
2022/09/06 10:41:33;;;;;;;4.07;1.52;;;29.40;99.90;;;;;;4989544;28;20030;-43
2022/09/06 10:43:59;;;;;;;7.18;1.38;;;29.40;99.90;;;;;;4990884;28;20054;-43
2022/09/06 10:46:27;;;;;;;5.40;1.20;;;29.40;99.90;;;;;;4985102;28;20402;-44
2022/09/06 10:48:53;;;;;;;5.80;1.55;;;29.50;99.90;;;;;;4990307;28;20018;-44
2022/09/06 10:51:44;;;;;;;9.95;1.83;;;29.50;99.90;;;;;;4991577;28;20105;-44
2022/09/06 10:54:22;;;;;;;3.95;1.35;;;29.50;99.90;;;;;;4990725;28;20050;-44
2022/09/06 10:57:10;;;;;;;10.82;2.45;;;29.50;99.90;;;;;;4985583;28;20050;-44
2022/09/06 10:59:41;;;;;;;6.20;1.98;;;29.50;99.90;;;;;;4991514;28;20039;-44
2022/09/06 11:02:25;;;;;;;5.85;1.90;;;29.50;99.90;;;;;;4991749;28;20033;-44
2022/09/06 11:04:51;;;;;;;11.27;1.65;;;29.50;99.90;;;;;;4990902;28;20026;-43
2022/09/06 11:07:30;;;;;;;4.68;2.05;;;29.60;99.90;;;;;;4987348;28;20026;-44
2022/09/06 11:10:26;;;;;;;7.05;2.47;;;29.60;99.90;;;;;;4990526;28;20089;-43
2022/09/06 11:13:25;;;;;;;10.52;2.63;;;29.60;99.90;;;;;;4990997;28;20014;-44
2022/09/06 11:16:09;;;;;;;8.88;1.73;;;29.70;99.90;;;;;;4991247;28;20093;-44
2022/09/06 11:19:16;;;;;;;6.45;2.30;;;29.70;99.90;;;;;;4986736;28;20081;-44
2022/09/06 11:22:12;;;;;;;10.27;3.38;;;29.80;99.90;;;;;;4990406;28;20524;-44
2022/09/06 11:24:49;;;;;;;16.08;9.50;;;29.80;99.90;;;;;;4991963;28;20429;-44
2022/09/06 11:27:30;;;;;;;11.40;6.28;;;29.80;99.90;;;;;;4991675;28;20030;-44
2022/09/06 11:29:58;;;;;;;11.95;9.40;;;29.90;99.90;;;;;;4990730;28;20125;-44
2022/09/06 11:32:47;;;;;;;9.40;3.33;;;29.90;99.90;;;;;;4974197;28;20112;-44
2022/09/06 11:35:30;;;;;;;8.80;5.60;;;29.90;99.90;;;;;;4985443;28;20105;-45
2022/09/06 11:38:22;;;;;;;10.77;6.05;;;30.00;99.90;;;;;;4983049;28;20027;-45
2022/09/06 11:41:01;;;;;;;6.47;3.15;;;30.00;99.90;;;;;;4982213;28;20394;-44
2022/09/06 11:43:48;;;;;;;8.75;2.65;;;30.20;99.90;;;;;;4990456;28;20428;-45
2022/09/06 11:46:49;;;;;;;5.20;3.35;;;30.20;99.90;;;;;;4990094;28;20022;-44
2022/09/06 11:49:28;;;;;;;10.98;3.00;;;30.20;99.90;;;;;;4968145;28;20037;-44
2022/09/06 11:51:54;;;;;;;4.20;2.05;;;30.30;99.90;;;;;;4987368;28;20026;-45
2022/09/06 11:54:34;;;;;;;4.38;1.63;;;30.30;99.90;;;;;;4990047;28;20382;-45
2022/09/06 11:57:19;;;;;;;6.00;1.95;;;30.40;99.90;;;;;;4981713;28;20378;-45
2022/09/06 11:59:45;;;;;;;4.57;1.30;;;30.50;99.90;;;;;;4970388;28;20145;-44
2022/09/06 12:02:34;;;;;;;11.35;2.03;;;30.60;99.90;;;;;;4970687;28;20571;-44
2022/09/06 12:05:00;;;;;;;8.77;2.53;;;30.70;99.90;;;;;;4974612;28;20447;-45
2022/09/06 12:07:27;;;;;;;4.28;1.80;;;30.70;99.90;;;;;;4970440;28;20026;-44
2022/09/06 12:09:53;;;;;;;7.55;1.10;;;30.80;99.90;;;;;;4970480;28;20038;-45
2022/09/06 12:12:39;;;;;;;4.63;2.55;;;30.80;99.90;;;;;;4970522;28;20038;-44
2022/09/06 12:15:27;;;;;;;11.63;3.50;;;30.90;99.90;;;;;;4970611;28;20027;-44
2022/09/06 12:17:54;;;;;;;8.75;4.72;;;31.00;99.90;;;;;;4970500;28;20015;-45
2022/09/06 12:20:48;;;;;;;6.95;2.70;;;31.00;99.90;;;;;;4970633;28;20030;-45
2022/09/06 12:23:35;;;;;;;4.88;1.00;;;31.00;99.90;;;;;;4977370;28;20052;-44
2022/09/06 12:26:09;;;;;;;6.57;1.38;;;31.10;99.90;;;;;;4986893;28;20085;-44
2022/09/06 12:28:51;;;;;;;4.25;0.90;;;31.10;99.90;;;;;;4991362;28;20501;-44
2022/09/06 12:31:41;;;;;;;8.02;3.10;;;31.10;99.90;;;;;;4991696;28;20399;-45
2022/09/06 12:34:30;;;;;;;6.15;1.73;;;31.10;99.90;;;;;;4990770;28;20027;-44
2022/09/06 12:36:59;;;;;;;3.50;1.30;;;31.10;99.90;;;;;;4986052;28;20570;-45
2022/09/06 12:39:25;;;;;;;4.80;1.42;;;31.20;99.90;;;;;;4985283;28;20023;-45
2022/09/06 12:42:10;;;;;;;3.78;1.20;;;31.20;99.90;;;;;;4987943;28;20026;-44
2022/09/06 12:44:39;;;;;;;5.78;1.00;;;31.20;99.90;;;;;;4988057;28;20154;-45
2022/09/06 12:47:32;;;;;;;3.13;0.93;;;31.20;99.90;;;;;;4987958;28;20030;-46
2022/09/06 12:50:24;;;;;;;4.25;1.45;;;31.30;99.90;;;;;;4988388;28;20034;-44
2022/09/06 12:52:58;;;;;;;5.57;2.72;;;31.30;99.90;;;;;;4987804;28;20121;-45
2022/09/06 12:55:34;;;;;;;7.50;2.03;;;31.30;99.90;;;;;;4987960;28;20032;-45
2022/09/06 12:58:07;;;;;;;8.82;2.50;;;31.30;99.90;;;;;;4990171;28;20522;-45
2022/09/06 13:00:39;;;;;;;8.20;2.33;;;31.30;99.90;;;;;;4987821;28;20058;-45
2022/09/06 13:03:25;;;;;;;5.80;0.95;;;31.30;99.90;;;;;;4986194;28;20014;-45
2022/09/06 13:05:52;;;;;;;7.72;1.48;;;31.30;99.90;;;;;;4986466;28;20100;-44
2022/09/06 13:08:44;;;;;;;3.45;0.95;;;31.40;99.90;;;;;;4990869;28;20030;-45
2022/09/06 13:11:13;;;;;;;5.63;1.65;;;31.40;99.90;;;;;;4985617;28;20054;-45
2022/09/06 13:13:51;;;;;;;6.03;1.40;;;31.30;99.90;;;;;;4983909;28;20061;-45
2022/09/06 13:16:41;;;;;;;6.10;1.73;;;31.30;99.90;;;;;;4985325;28;20015;-45